sensor_id;sensor_type;location;lat;lon;timestamp;P1;durP1;ratioP1;P2;durP2;ratioP2
41426;SDS011;27171;51.812;19.514;2024-02-26T08:19:13;12.03;;;9.10;;
41426;SDS011;27171;51.812;19.514;2024-02-26T08:22:15;13.35;;;10.05;;
41426;SDS011;27171;51.812;19.514;2024-02-26T08:25:16;13.60;;;10.23;;
41426;SDS011;27171;51.812;19.514;2024-02-26T08:28:17;17.75;;;11.90;;
41426;SDS011;27171;51.812;19.514;2024-02-26T08:31:18;16.02;;;10.82;;
41426;SDS011;27171;51.812;19.514;2024-02-26T08:34:19;17.58;;;12.85;;
41426;SDS011;27171;51.812;19.514;2024-02-26T08:37:21;19.10;;;13.05;;
41426;SDS011;27171;51.812;19.514;2024-02-26T08:40:22;14.13;;;10.25;;
41426;SDS011;27171;51.812;19.514;2024-02-26T08:43:23;13.70;;;10.25;;
41426;SDS011;27171;51.812;19.514;2024-02-26T08:46:24;11.23;;;9.30;;
41426;SDS011;27171;51.812;19.514;2024-02-26T08:49:25;14.50;;;9.07;;
41426;SDS011;27171;51.812;19.514;2024-02-26T08:52:26;12.00;;;9.07;;
41426;SDS011;27171;51.812;19.514;2024-02-26T08:55:27;11.88;;;9.05;;
41426;SDS011;27171;51.812;19.514;2024-02-26T08:58:28;10.85;;;8.48;;
41426;SDS011;27171;51.812;19.514;2024-02-26T09:01:31;10.10;;;7.72;;
41426;SDS011;27171;51.812;19.514;2024-02-26T09:04:32;10.30;;;8.15;;
41426;SDS011;27171;51.812;19.514;2024-02-26T09:07:33;11.88;;;7.82;;
41426;SDS011;27171;51.812;19.514;2024-02-26T09:10:34;10.48;;;7.88;;
41426;SDS011;27171;51.812;19.514;2024-02-26T09:13:35;11.50;;;8.60;;
41426;SDS011;27171;51.812;19.514;2024-02-26T09:16:36;10.98;;;8.55;;
41426;SDS011;27171;51.812;19.514;2024-02-26T09:19:38;11.70;;;9.13;;
41426;SDS011;27171;51.812;19.514;2024-02-26T09:22:39;11.00;;;8.52;;
41426;SDS011;27171;51.812;19.514;2024-02-26T09:25:40;12.30;;;9.10;;
41426;SDS011;27171;51.812;19.514;2024-02-26T09:28:42;10.65;;;9.02;;
41426;SDS011;27171;51.812;19.514;2024-02-26T09:31:43;13.40;;;8.07;;
41426;SDS011;27171;51.812;19.514;2024-02-26T09:34:44;9.15;;;7.57;;
41426;SDS011;27171;51.812;19.514;2024-02-26T09:37:45;10.80;;;8.38;;
41426;SDS011;27171;51.812;19.514;2024-02-26T09:40:46;12.27;;;8.90;;
41426;SDS011;27171;51.812;19.514;2024-02-26T09:43:48;9.88;;;7.55;;
41426;SDS011;27171;51.812;19.514;2024-02-26T09:46:55;9.98;;;6.05;;
41426;SDS011;27171;51.812;19.514;2024-02-26T09:49:57;6.75;;;5.63;;
41426;SDS011;27171;51.812;19.514;2024-02-26T09:53:00;7.70;;;6.15;;
41426;SDS011;27171;51.812;19.514;2024-02-26T09:56:02;6.90;;;4.95;;
41426;SDS011;27171;51.812;19.514;2024-02-26T09:59:06;5.53;;;4.50;;
41426;SDS011;27171;51.812;19.514;2024-02-26T10:02:14;5.68;;;4.55;;
41426;SDS011;27171;51.812;19.514;2024-02-26T10:05:16;7.18;;;4.75;;
41426;SDS011;27171;51.812;19.514;2024-02-26T10:08:18;6.15;;;4.20;;
41426;SDS011;27171;51.812;19.514;2024-02-26T10:11:20;5.35;;;3.95;;
41426;SDS011;27171;51.812;19.514;2024-02-26T10:14:23;6.60;;;3.75;;
41426;SDS011;27171;51.812;19.514;2024-02-26T10:17:25;4.03;;;3.10;;
41426;SDS011;27171;51.812;19.514;2024-02-26T10:20:27;5.57;;;3.97;;
41426;SDS011;27171;51.812;19.514;2024-02-26T10:23:28;4.40;;;3.38;;
41426;SDS011;27171;51.812;19.514;2024-02-26T10:26:29;4.18;;;2.95;;
41426;SDS011;27171;51.812;19.514;2024-02-26T10:29:31;6.00;;;3.47;;
41426;SDS011;27171;51.812;19.514;2024-02-26T10:32:32;6.30;;;3.75;;
41426;SDS011;27171;51.812;19.514;2024-02-26T10:35:33;3.95;;;2.88;;
41426;SDS011;27171;51.812;19.514;2024-02-26T10:38:36;4.38;;;3.50;;
41426;SDS011;27171;51.812;19.514;2024-02-26T10:41:38;4.63;;;3.50;;
41426;SDS011;27171;51.812;19.514;2024-02-26T10:44:44;6.20;;;3.42;;
41426;SDS011;27171;51.812;19.514;2024-02-26T10:47:45;4.85;;;3.30;;
41426;SDS011;27171;51.812;19.514;2024-02-26T10:50:47;4.88;;;3.67;;
41426;SDS011;27171;51.812;19.514;2024-02-26T10:53:49;5.03;;;3.67;;
41426;SDS011;27171;51.812;19.514;2024-02-26T10:56:56;4.95;;;3.00;;
41426;SDS011;27171;51.812;19.514;2024-02-26T10:59:57;5.05;;;2.60;;
